57C

East Troy Municipal Airport

East Troy, Wisconsin, USA
METAR K57C 241935Z AUTO 10012G16KT 10SM CLR 21/16 A2997 RMK AO2 T02090161
Observed Flight Rules
Sep-24 @ 19:35 UTC (32 minutes ago) Visual Flight Rules
Wind Visibility Clouds
100° at 12 knots
 Gusting to 16 knots
10 miles
  • Clear skies
Temperatures Readings
Current 21°C / 70°F
Dewpoint 16°C / 61°F
Humidity 73%
Altimeter 29.97" Hg
Pressure 1015 hPa
Elevation 262
METAR K57C 241935Z AUTO 10012G16KT 10SM CLR 21/16 A2997 RMK AO2 T02090161
Observed Flight Rules
Sep-24 @ 19:35 UTC
(32 minutes ago)
VFR
Wind Visibility
100° at 12 knots
 Gusting to 16 knots
10 miles
Clouds
  • Clear skies
Temperature Dewpoint
21°C / 70°F 16°C / 61°F
Humidity Altimeter Pressure
73% 29.97" Hg 1015 hPa